Terminal Aerodrome Forecast
Issued by NWS Twin Cities, MN

Home | Current Version | Previous Version | Text Only | Print | Product List | Glossary On
Versions: 1 2 3 4 5 6 7 8 9 10 11 12 13 14 15 16
000
FTUS43 KMPX 221200 CCA
TAFEAU
TAF COR
KEAU 221228Z 2212/2312 24004KT P6SM SKC
      TEMPO 2212/2214 1SM BR SCT001
     FM221800 27009KT P6SM SKC
     FM230000 23004KT P6SM SKC=

USA.gov is the U.S. government's official web portal to all federal, state and local government web resources and services.